createdAt,value
2023-05-08T00:00:28.628Z,405.00
2023-05-08T00:01:28.631Z,404.00
2023-05-08T00:02:28.774Z,402.00
2023-05-08T00:03:28.897Z,402.00
2023-05-08T00:04:28.805Z,402.00
2023-05-08T00:05:28.807Z,405.00
2023-05-08T00:06:28.826Z,403.00
2023-05-08T00:07:28.894Z,403.00
2023-05-08T00:08:28.941Z,402.00
2023-05-08T00:09:28.997Z,401.00
2023-05-08T00:10:28.986Z,402.00
2023-05-08T00:11:29.024Z,402.00
2023-05-08T00:12:29.094Z,402.00
2023-05-08T00:13:29.126Z,401.00
2023-05-08T00:14:29.179Z,401.00
2023-05-08T00:15:29.189Z,401.00
2023-05-08T00:16:29.240Z,400.00
2023-05-08T00:17:29.331Z,398.00
2023-05-08T00:18:29.364Z,398.00
2023-05-08T00:19:29.381Z,397.00
2023-05-08T00:20:29.423Z,395.00
2023-05-08T00:21:29.471Z,396.00
2023-05-08T00:22:29.516Z,396.00
2023-05-08T00:23:29.574Z,396.00
2023-05-08T00:24:29.595Z,396.00
2023-05-08T00:25:29.627Z,396.00
2023-05-08T00:26:29.737Z,396.00
2023-05-08T00:27:29.736Z,396.00
2023-05-08T00:28:29.770Z,396.00
2023-05-08T00:29:29.859Z,395.00
2023-05-08T00:30:29.861Z,396.00
2023-05-08T00:31:29.937Z,399.00
2023-05-08T00:32:30.008Z,402.00
2023-05-08T00:33:30.013Z,403.00
2023-05-08T00:34:30.061Z,402.00
2023-05-08T00:35:30.066Z,403.00
2023-05-08T00:36:30.090Z,402.00
2023-05-08T00:37:30.163Z,402.00
2023-05-08T00:38:30.194Z,401.00
2023-05-08T00:39:30.257Z,401.00
2023-05-08T00:40:30.279Z,403.00
2023-05-08T00:41:30.351Z,402.00
2023-05-08T00:42:30.371Z,401.00
2023-05-08T00:43:30.419Z,400.00
2023-05-08T00:44:30.446Z,400.00
2023-05-08T00:45:30.470Z,400.00
2023-05-08T00:46:30.604Z,398.00
2023-05-08T00:47:30.631Z,398.00
2023-05-08T00:48:30.646Z,396.00
2023-05-08T00:49:30.683Z,397.00
2023-05-08T00:50:30.728Z,398.00
2023-05-08T00:51:30.771Z,400.00
2023-05-08T00:52:30.815Z,400.00
2023-05-08T00:53:30.852Z,399.00
2023-05-08T00:54:30.894Z,399.00
2023-05-08T00:55:30.942Z,398.00
2023-05-08T00:56:30.983Z,399.00
2023-05-08T00:57:31.006Z,399.00
2023-05-08T00:58:31.080Z,397.00
2023-05-08T00:59:31.100Z,396.00
2023-05-08T01:00:31.193Z,396.00
2023-05-08T01:01:31.202Z,396.00
2023-05-08T01:02:31.465Z,396.00
2023-05-08T01:03:31.437Z,396.00
2023-05-08T01:04:31.351Z,396.00
2023-05-08T01:05:31.402Z,395.00
2023-05-08T01:06:31.992Z,396.00
2023-05-08T01:07:31.451Z,398.00
2023-05-08T01:08:31.536Z,397.00
2023-05-08T01:09:31.621Z,397.00
2023-05-08T01:10:31.624Z,394.00
2023-05-08T01:11:31.652Z,393.00
2023-05-08T01:12:31.736Z,393.00
2023-05-08T01:13:31.760Z,394.00
2023-05-08T01:14:31.821Z,394.00
2023-05-08T01:15:31.865Z,395.00
2023-05-08T01:16:31.956Z,394.00
2023-05-08T01:17:31.990Z,392.00
2023-05-08T01:18:31.972Z,394.00
2023-05-08T01:19:32.055Z,392.00
2023-05-08T01:20:32.060Z,396.00
2023-05-08T01:21:32.140Z,396.00
2023-05-08T01:22:32.172Z,397.00
2023-05-08T01:23:32.205Z,398.00
2023-05-08T01:24:32.254Z,396.00
2023-05-08T01:25:32.344Z,394.00
2023-05-08T01:26:32.376Z,395.00
2023-05-08T01:27:32.382Z,396.00
2023-05-08T01:28:32.445Z,398.00
2023-05-08T01:29:32.487Z,399.00
2023-05-08T01:30:32.550Z,400.00
2023-05-08T01:31:32.559Z,400.00
2023-05-08T01:32:32.672Z,397.00
2023-05-08T01:33:32.659Z,398.00
2023-05-08T01:34:32.733Z,397.00
2023-05-08T01:35:32.745Z,399.00
2023-05-08T01:36:32.787Z,399.00
2023-05-08T01:37:32.851Z,399.00
2023-05-08T01:38:32.931Z,398.00
2023-05-08T01:39:32.943Z,398.00
2023-05-08T01:40:32.989Z,396.00
2023-05-08T01:41:33.002Z,394.00
2023-05-08T01:42:33.071Z,392.00
2023-05-08T01:43:33.131Z,393.00
2023-05-08T01:44:33.194Z,394.00
2023-05-08T01:45:33.204Z,394.00
2023-05-08T01:46:33.305Z,395.00
2023-05-08T01:47:33.319Z,394.00
2023-05-08T01:48:33.368Z,394.00
2023-05-08T01:49:33.381Z,396.00
2023-05-08T01:50:33.428Z,397.00
2023-05-08T01:51:33.488Z,396.00
2023-05-08T01:52:33.543Z,398.00
2023-05-08T01:53:33.582Z,397.00
2023-05-08T01:54:33.620Z,401.00
2023-05-08T01:55:33.633Z,403.00
2023-05-08T01:56:33.680Z,403.00
2023-05-08T01:57:33.716Z,403.00
2023-05-08T01:58:33.799Z,401.00
2023-05-08T01:59:33.813Z,401.00
2023-05-08T02:00:33.921Z,400.00
2023-05-08T02:01:33.953Z,398.00
2023-05-08T02:02:34.047Z,399.00
2023-05-08T02:03:34.082Z,399.00
2023-05-08T02:04:34.071Z,397.00
2023-05-08T02:05:34.114Z,396.00
2023-05-08T02:06:34.185Z,395.00
2023-05-08T02:07:34.182Z,397.00
2023-05-08T02:08:34.248Z,397.00
2023-05-08T02:09:34.248Z,396.00
2023-05-08T02:10:34.338Z,397.00
2023-05-08T02:11:34.361Z,398.00
2023-05-08T02:12:34.386Z,403.00
2023-05-08T02:13:34.418Z,404.00
2023-05-08T02:14:34.487Z,403.00
2023-05-08T02:15:34.495Z,402.00
2023-05-08T02:16:34.578Z,401.00
2023-05-08T02:17:34.632Z,402.00
2023-05-08T02:18:34.610Z,404.00
2023-05-08T02:19:34.690Z,402.00
2023-05-08T02:20:34.701Z,402.00
2023-05-08T02:21:34.782Z,401.00
2023-05-08T02:22:34.802Z,399.00
2023-05-08T02:23:34.876Z,400.00
2023-05-08T02:24:34.894Z,401.00
2023-05-08T02:25:34.932Z,399.00
2023-05-08T02:26:34.980Z,401.00
2023-05-08T02:27:35.024Z,401.00
2023-05-08T02:28:35.047Z,401.00
2023-05-08T02:29:35.103Z,400.00
2023-05-08T02:30:35.157Z,400.00
2023-05-08T02:31:35.256Z,400.00
2023-05-08T02:32:35.267Z,400.00
2023-05-08T02:33:35.255Z,399.00
2023-05-08T02:34:35.302Z,399.00
2023-05-08T02:35:35.404Z,398.00
2023-05-08T02:36:35.384Z,397.00
2023-05-08T02:37:35.416Z,395.00
2023-05-08T02:38:35.486Z,396.00
2023-05-08T02:39:35.557Z,398.00
2023-05-08T02:40:35.561Z,398.00
2023-05-08T02:41:35.637Z,398.00
2023-05-08T02:42:35.657Z,399.00
2023-05-08T02:43:35.689Z,399.00
2023-05-08T02:44:35.726Z,399.00
2023-05-08T02:45:35.764Z,400.00
2023-05-08T02:46:35.999Z,398.00
2023-05-08T02:47:35.917Z,399.00
2023-05-08T02:48:35.881Z,398.00
2023-05-08T02:49:35.921Z,399.00
2023-05-08T02:50:36.014Z,399.00
2023-05-08T02:51:36.044Z,397.00
2023-05-08T02:52:36.081Z,397.00
2023-05-08T02:53:36.121Z,398.00
2023-05-08T02:54:36.147Z,396.00
2023-05-08T02:55:36.236Z,395.00
2023-05-08T02:56:36.252Z,396.00
2023-05-08T02:57:36.267Z,396.00
2023-05-08T02:58:36.313Z,396.00
2023-05-08T02:59:36.383Z,396.00
2023-05-08T03:00:36.438Z,397.00
2023-05-08T03:01:36.481Z,397.00
2023-05-08T03:02:36.579Z,398.00
2023-05-08T03:03:36.608Z,399.00
2023-05-08T03:04:36.607Z,398.00
2023-05-08T03:05:36.653Z,398.00
2023-05-08T03:06:36.657Z,397.00
2023-05-08T03:07:36.727Z,396.00
2023-05-08T03:08:36.755Z,396.00
2023-05-08T03:09:36.853Z,398.00
2023-05-08T03:10:37.569Z,400.00
2023-05-08T03:11:36.899Z,399.00
2023-05-08T03:12:36.951Z,398.00
2023-05-08T03:13:36.982Z,399.00
2023-05-08T03:14:37.011Z,403.00
2023-05-08T03:15:37.084Z,401.00
2023-05-08T03:16:37.102Z,399.00
2023-05-08T03:17:37.259Z,400.00
2023-05-08T03:18:37.173Z,401.00
2023-05-08T03:19:37.218Z,403.00
2023-05-08T03:20:37.247Z,403.00
2023-05-08T03:21:37.298Z,402.00
2023-05-08T03:22:37.347Z,402.00
2023-05-08T03:23:37.349Z,406.00
2023-05-08T03:24:37.458Z,406.00
2023-05-08T03:25:37.466Z,406.00
2023-05-08T03:26:37.505Z,405.00
2023-05-08T03:27:37.581Z,401.00
2023-05-08T03:28:37.597Z,399.00
2023-05-08T03:29:37.633Z,400.00
2023-05-08T03:30:37.670Z,403.00
2023-05-08T03:31:39.670Z,404.00
2023-05-08T03:32:37.789Z,408.00
2023-05-08T03:33:37.817Z,408.00
2023-05-08T03:34:37.860Z,407.00
2023-05-08T03:35:37.891Z,405.00
2023-05-08T03:36:37.951Z,406.00
2023-05-08T03:37:37.982Z,405.00
2023-05-08T03:38:38.044Z,401.00
2023-05-08T03:39:38.064Z,400.00
2023-05-08T03:40:38.130Z,399.00
2023-05-08T03:41:38.178Z,399.00
2023-05-08T03:42:38.213Z,400.00
2023-05-08T03:43:38.276Z,398.00
2023-05-08T03:44:38.311Z,400.00
2023-05-08T03:45:38.323Z,400.00
2023-05-08T03:46:38.390Z,400.00
2023-05-08T03:47:38.552Z,399.00
2023-05-08T03:48:38.506Z,398.00
2023-05-08T03:49:38.504Z,397.00
2023-05-08T03:50:38.603Z,397.00
2023-05-08T03:51:38.623Z,399.00
2023-05-08T03:52:38.664Z,401.00
2023-05-08T03:53:38.697Z,399.00
2023-05-08T03:54:38.752Z,398.00
2023-05-08T03:55:38.768Z,399.00
2023-05-08T03:56:38.857Z,398.00
2023-05-08T03:57:38.889Z,397.00
2023-05-08T03:58:38.928Z,397.00
2023-05-08T03:59:38.972Z,396.00
2023-05-08T04:00:38.992Z,396.00
2023-05-08T04:01:39.087Z,396.00
2023-05-08T04:02:41.502Z,396.00
2023-05-08T04:03:39.191Z,398.00
2023-05-08T04:04:39.094Z,398.00
2023-05-08T04:05:39.086Z,398.00
2023-05-08T04:06:49.408Z,398.00
2023-05-08T04:07:41.087Z,399.00
2023-05-08T04:08:39.069Z,400.00
2023-05-08T04:09:39.069Z,402.00
2023-05-08T04:10:39.078Z,399.00
2023-05-08T04:11:39.068Z,400.00
2023-05-08T04:12:39.116Z,403.00
2023-05-08T04:13:39.057Z,403.00
2023-05-08T04:14:39.067Z,404.00
2023-05-08T04:15:39.055Z,403.00
2023-05-08T04:16:39.121Z,398.00
2023-05-08T04:17:39.189Z,399.00
2023-05-08T04:18:39.178Z,395.00
2023-05-08T04:19:39.238Z,395.00
2023-05-08T04:20:39.302Z,396.00
2023-05-08T04:21:39.332Z,394.00
2023-05-08T04:22:39.395Z,395.00
2023-05-08T04:23:39.425Z,393.00
2023-05-08T04:24:39.465Z,394.00
2023-05-08T04:25:39.495Z,395.00
2023-05-08T04:26:39.566Z,395.00
2023-05-08T04:27:39.600Z,393.00
2023-05-08T04:28:39.648Z,393.00
2023-05-08T04:29:39.696Z,395.00
2023-05-08T04:30:39.758Z,396.00
2023-05-08T04:31:39.859Z,397.00
2023-05-08T04:32:41.713Z,395.00
2023-05-08T04:33:39.834Z,395.00
2023-05-08T04:34:39.831Z,393.00
2023-05-08T04:35:39.837Z,395.00
2023-05-08T04:36:39.852Z,396.00
2023-05-08T04:37:39.819Z,397.00
2023-05-08T04:38:39.810Z,398.00
2023-05-08T04:39:40.978Z,396.00
2023-05-08T04:40:39.790Z,393.00
2023-05-08T04:41:39.801Z,393.00
2023-05-08T04:42:39.831Z,392.00
2023-05-08T04:43:39.761Z,391.00
2023-05-08T04:44:39.763Z,392.00
2023-05-08T04:45:39.734Z,393.00
2023-05-08T04:46:39.796Z,393.00
2023-05-08T04:47:39.778Z,395.00
2023-05-08T04:48:39.745Z,396.00
2023-05-08T04:49:39.709Z,396.00
2023-05-08T04:50:39.718Z,395.00
2023-05-08T04:51:39.784Z,397.00
2023-05-08T04:52:39.685Z,396.00
2023-05-08T04:53:39.731Z,397.00
2023-05-08T04:54:39.726Z,398.00
2023-05-08T04:55:39.684Z,399.00
2023-05-08T04:56:39.668Z,399.00
2023-05-08T04:57:39.654Z,399.00
2023-05-08T04:58:39.695Z,395.00
2023-05-08T04:59:39.683Z,394.00
2023-05-08T05:00:39.624Z,393.00
2023-05-08T05:01:39.708Z,394.00
2023-05-08T05:02:39.657Z,393.00
2023-05-08T05:03:39.636Z,395.00
2023-05-08T05:04:39.618Z,398.00
2023-05-08T05:05:39.631Z,397.00
2023-05-08T05:06:39.639Z,398.00
2023-05-08T05:07:39.604Z,397.00
2023-05-08T05:08:39.585Z,397.00
2023-05-08T05:09:39.609Z,396.00
2023-05-08T05:10:39.568Z,398.00
2023-05-08T05:11:39.581Z,397.00
2023-05-08T05:12:39.656Z,397.00
2023-05-08T05:13:39.541Z,396.00
2023-05-08T05:14:39.589Z,397.00
2023-05-08T05:15:39.559Z,397.00
2023-05-08T05:16:39.595Z,397.00
2023-05-08T05:17:39.570Z,395.00
2023-05-08T05:18:39.537Z,398.00
2023-05-08T05:19:39.544Z,399.00
2023-05-08T05:20:39.526Z,399.00
2023-05-08T05:21:39.507Z,401.00
2023-05-08T05:22:39.480Z,402.00
2023-05-08T05:23:39.538Z,402.00
2023-05-08T05:24:39.629Z,401.00
2023-05-08T05:25:39.663Z,399.00
2023-05-08T05:26:39.707Z,399.00
2023-05-08T05:27:39.778Z,396.00
2023-05-08T05:28:39.824Z,397.00
2023-05-08T05:29:39.880Z,397.00
2023-05-08T05:30:39.915Z,396.00
2023-05-08T05:31:39.966Z,396.00
2023-05-08T05:32:40.038Z,395.00
2023-05-08T05:33:40.056Z,394.00
2023-05-08T05:34:40.132Z,396.00
2023-05-08T05:35:40.195Z,648.00
2023-05-08T05:36:40.217Z,456.00
2023-05-08T05:37:40.250Z,449.00
2023-05-08T05:38:40.331Z,448.00
2023-05-08T05:39:40.361Z,455.00
2023-05-08T05:40:40.421Z,454.00
2023-05-08T05:41:40.506Z,462.00
2023-05-08T05:42:40.542Z,476.00
2023-05-08T05:43:40.646Z,494.00
2023-05-08T05:44:40.658Z,498.00
2023-05-08T05:45:40.720Z,557.00
2023-05-08T05:46:42.782Z,572.00
2023-05-08T05:47:40.820Z,578.00
2023-05-08T05:48:40.762Z,584.00
2023-05-08T05:49:40.788Z,596.00
2023-05-08T05:50:40.753Z,662.00
2023-05-08T05:51:40.747Z,674.00
2023-05-08T05:52:40.761Z,729.00
2023-05-08T05:53:40.713Z,739.00
2023-05-08T05:54:40.736Z,754.00
2023-05-08T05:55:41.132Z,826.00
2023-05-08T05:56:40.722Z,874.00
2023-05-08T05:57:40.766Z,900.00
2023-05-08T05:58:40.689Z,950.00
2023-05-08T05:59:40.707Z,996.00
2023-05-08T06:00:40.675Z,987.00
2023-05-08T06:01:40.740Z,997.00
2023-05-08T06:02:40.753Z,1030.00
2023-05-08T06:03:40.710Z,1063.00
2023-05-08T06:04:40.634Z,1055.00
2023-05-08T06:05:40.655Z,1059.00
2023-05-08T06:06:40.633Z,1084.00
2023-05-08T06:07:40.600Z,1192.00
2023-05-08T06:08:40.665Z,1251.00
2023-05-08T06:09:40.604Z,1204.00
2023-05-08T06:10:40.662Z,1185.00
2023-05-08T06:11:40.613Z,1189.00
2023-05-08T06:12:40.640Z,1194.00
2023-05-08T06:13:40.597Z,1203.00
2023-05-08T06:14:40.589Z,1212.00
2023-05-08T06:15:40.567Z,1227.00
2023-05-08T06:16:40.623Z,1266.00
2023-05-08T06:17:40.566Z,1302.00
2023-05-08T06:18:40.561Z,1316.00
2023-05-08T06:19:40.557Z,1326.00
2023-05-08T06:20:40.560Z,1375.00
2023-05-08T06:21:40.541Z,1395.00
2023-05-08T06:22:47.573Z,1416.00
2023-05-08T06:23:40.500Z,1419.00
2023-05-08T06:24:40.513Z,1426.00
2023-05-08T06:25:40.518Z,1444.00
2023-05-08T06:26:40.531Z,1464.00
2023-05-08T06:27:40.518Z,1533.00
2023-05-08T06:28:40.468Z,1617.00
2023-05-08T06:29:40.472Z,1619.00
2023-05-08T06:30:40.527Z,1608.00
2023-05-08T06:31:40.480Z,1644.00
2023-05-08T06:32:40.520Z,1629.00
2023-05-08T06:33:40.456Z,1631.00
2023-05-08T06:34:40.445Z,1646.00
2023-05-08T06:35:40.459Z,1659.00
2023-05-08T06:36:40.453Z,1670.00
2023-05-08T06:37:40.403Z,1684.00
2023-05-08T06:38:40.430Z,1774.00
2023-05-08T06:39:40.404Z,1774.00
2023-05-08T06:40:40.433Z,1754.00
2023-05-08T06:41:40.380Z,1755.00
2023-05-08T06:42:40.394Z,1760.00
2023-05-08T06:43:40.382Z,1804.00
2023-05-08T06:44:40.378Z,1831.00
2023-05-08T06:45:40.360Z,1852.00
2023-05-08T06:46:40.488Z,1842.00
2023-05-08T06:47:40.426Z,1915.00
2023-05-08T06:48:40.359Z,1926.00
2023-05-08T06:49:40.429Z,1909.00
2023-05-08T06:50:40.368Z,1899.00
2023-05-08T06:51:40.355Z,1865.00
2023-05-08T06:52:40.380Z,1788.00
2023-05-08T06:53:40.419Z,1795.00
2023-05-08T06:54:40.449Z,1814.00
2023-05-08T06:55:40.461Z,1818.00
2023-05-08T06:56:40.524Z,1812.00
2023-05-08T06:57:40.579Z,1809.00
2023-05-08T06:58:40.592Z,1799.00
2023-05-08T06:59:40.647Z,1792.00
2023-05-08T07:00:40.706Z,1778.00
2023-05-08T07:01:40.866Z,1768.00
2023-05-08T07:02:40.860Z,1741.00
2023-05-08T07:03:40.865Z,1759.00
2023-05-08T07:04:40.961Z,1775.00
2023-05-08T07:05:41.038Z,1788.00
2023-05-08T07:06:41.063Z,1781.00
2023-05-08T07:07:41.089Z,1782.00
2023-05-08T07:08:41.192Z,1782.00
2023-05-08T07:09:41.256Z,1787.00
2023-05-08T07:10:41.291Z,1796.00
2023-05-08T07:11:41.329Z,1806.00
2023-05-08T07:12:41.449Z,1804.00
2023-05-08T07:13:41.439Z,1812.00
2023-05-08T07:14:41.493Z,1814.00
2023-05-08T07:15:41.596Z,1818.00
2023-05-08T07:16:41.787Z,1822.00
2023-05-08T07:17:41.786Z,1825.00
2023-05-08T07:18:41.715Z,1830.00
2023-05-08T07:19:41.802Z,1834.00
2023-05-08T07:20:41.824Z,1833.00
2023-05-08T07:21:41.902Z,1837.00
2023-05-08T07:22:41.948Z,1850.00
2023-05-08T07:23:42.001Z,1848.00
2023-05-08T07:24:42.010Z,1850.00
2023-05-08T07:25:42.106Z,1849.00
2023-05-08T07:26:42.139Z,1851.00
2023-05-08T07:27:42.187Z,1856.00
2023-05-08T07:28:42.240Z,1860.00
2023-05-08T07:29:42.269Z,1868.00
2023-05-08T07:30:42.349Z,1869.00
2023-05-08T07:31:42.415Z,1870.00
2023-05-08T07:32:42.492Z,1870.00
2023-05-08T07:33:42.456Z,1867.00
2023-05-08T07:34:42.516Z,1867.00
2023-05-08T07:35:42.582Z,1873.00
2023-05-08T07:36:42.624Z,1871.00
2023-05-08T07:37:42.690Z,1871.00
2023-05-08T07:38:42.708Z,1871.00
2023-05-08T07:39:42.788Z,1864.00
2023-05-08T07:40:43.189Z,1867.00
2023-05-08T07:41:42.866Z,1975.00
2023-05-08T07:42:42.895Z,1968.00
2023-05-08T07:43:42.890Z,1967.00
2023-05-08T07:44:53.534Z,1979.00
2023-05-08T07:45:44.209Z,1989.00
2023-05-08T07:46:42.953Z,1985.00
2023-05-08T07:47:42.969Z,1985.00
2023-05-08T07:48:42.907Z,1951.00
2023-05-08T07:49:42.942Z,1757.00
2023-05-08T07:50:42.937Z,1676.00
2023-05-08T07:51:42.925Z,1603.00
2023-05-08T07:52:42.917Z,1520.00
2023-05-08T07:53:42.880Z,1478.00
2023-05-08T07:54:42.872Z,1427.00
2023-05-08T07:55:43.192Z,1509.00
2023-05-08T07:56:42.899Z,1510.00
2023-05-08T07:57:42.867Z,1485.00
2023-05-08T07:58:42.867Z,1490.00
2023-05-08T07:59:42.851Z,1461.00
2023-05-08T08:00:42.876Z,1435.00
2023-05-08T08:01:42.894Z,1368.00
2023-05-08T08:02:43.012Z,1434.00
2023-05-08T08:03:42.959Z,1419.00
2023-05-08T08:04:42.807Z,1418.00
2023-05-08T08:05:43.228Z,1416.00
2023-05-08T08:06:42.812Z,1418.00
2023-05-08T08:07:42.826Z,1393.00
2023-05-08T08:08:42.793Z,1459.00
2023-05-08T08:09:42.808Z,1456.00
2023-05-08T08:10:42.815Z,1450.00
2023-05-08T08:11:42.827Z,1447.00
2023-05-08T08:12:42.905Z,1436.00
2023-05-08T08:13:42.880Z,1458.00
2023-05-08T08:14:42.944Z,1432.00
2023-05-08T08:15:42.976Z,1423.00
2023-05-08T08:16:43.095Z,1383.00
2023-05-08T08:17:43.120Z,1341.00
2023-05-08T08:18:43.140Z,1387.00
2023-05-08T08:19:43.154Z,1379.00
2023-05-08T08:20:43.202Z,1379.00
2023-05-08T08:21:43.335Z,1368.00
2023-05-08T08:22:43.329Z,1325.00
2023-05-08T08:23:43.302Z,1300.00
2023-05-08T08:24:43.315Z,1291.00
2023-05-08T08:25:43.749Z,1284.00
2023-05-08T08:26:43.381Z,1272.00
2023-05-08T08:27:43.370Z,1264.00
2023-05-08T08:28:43.401Z,1260.00
2023-05-08T08:29:43.451Z,1260.00
2023-05-08T08:30:43.453Z,1268.00
2023-05-08T08:31:43.576Z,1243.00
2023-05-08T08:32:43.529Z,1257.00
2023-05-08T08:33:43.521Z,1246.00
2023-05-08T08:34:43.561Z,1247.00
2023-05-08T08:35:43.616Z,1260.00
2023-05-08T08:36:43.630Z,1223.00
2023-05-08T08:37:43.723Z,1230.00
2023-05-08T08:38:43.597Z,1275.00
2023-05-08T08:39:43.664Z,1203.00
2023-05-08T08:40:43.723Z,1204.00
2023-05-08T08:41:43.715Z,1203.00
2023-05-08T08:42:43.731Z,1218.00
2023-05-08T08:43:43.723Z,1218.00
2023-05-08T08:44:44.728Z,1157.00
2023-05-08T08:45:43.788Z,1163.00
2023-05-08T08:46:44.002Z,1125.00
2023-05-08T08:47:43.911Z,1083.00
2023-05-08T08:48:43.933Z,1082.00
2023-05-08T08:49:43.989Z,1173.00
2023-05-08T08:50:44.276Z,1147.00
2023-05-08T08:51:44.082Z,1103.00
2023-05-08T08:52:44.116Z,1104.00
2023-05-08T08:53:44.302Z,1107.00
2023-05-08T08:54:44.228Z,1172.00
2023-05-08T08:55:44.242Z,1196.00
2023-05-08T08:56:44.287Z,1197.00
2023-05-08T08:57:44.289Z,1228.00
2023-05-08T08:58:44.298Z,1225.00
2023-05-08T08:59:44.320Z,1244.00
2023-05-08T09:00:44.292Z,1253.00
2023-05-08T09:01:44.355Z,1256.00
2023-05-08T09:02:44.465Z,1254.00
2023-05-08T09:03:44.963Z,1223.00
2023-05-08T09:04:44.355Z,1227.00
2023-05-08T09:05:44.750Z,1250.00
2023-05-08T09:06:44.344Z,1255.00
2023-05-08T09:07:44.343Z,1204.00
2023-05-08T09:08:44.364Z,1242.00
2023-05-08T09:09:44.506Z,1253.00
2023-05-08T09:10:44.758Z,1276.00
2023-05-08T09:11:44.454Z,1300.00
2023-05-08T09:12:44.572Z,1321.00
2023-05-08T09:13:44.611Z,1348.00
2023-05-08T09:14:44.655Z,1359.00
2023-05-08T09:15:44.678Z,1354.00
2023-05-08T09:16:44.907Z,1356.00
2023-05-08T09:17:44.821Z,1330.00
2023-05-08T09:18:44.864Z,1337.00
2023-05-08T09:19:44.900Z,1353.00
2023-05-08T09:20:45.279Z,1356.00
2023-05-08T09:21:45.057Z,1362.00
2023-05-08T09:22:45.067Z,1368.00
2023-05-08T09:23:45.176Z,1370.00
2023-05-08T09:24:45.281Z,1384.00
2023-05-08T09:25:45.857Z,1379.00
2023-05-08T09:26:45.333Z,1354.00
2023-05-08T09:27:45.336Z,1343.00
2023-05-08T09:28:45.417Z,1354.00
2023-05-08T09:29:45.455Z,1391.00
2023-05-08T09:30:45.501Z,1405.00
2023-05-08T09:31:45.629Z,1406.00
2023-05-08T09:32:45.729Z,1393.00
2023-05-08T09:33:45.648Z,1404.00
2023-05-08T09:34:45.714Z,1415.00
2023-05-08T09:35:45.763Z,1426.00
2023-05-08T09:36:45.818Z,1433.00
2023-05-08T09:37:45.812Z,1435.00
2023-05-08T09:38:45.888Z,1427.00
2023-05-08T09:39:45.897Z,1426.00
2023-05-08T09:40:46.276Z,1426.00
2023-05-08T09:41:46.140Z,1222.00
2023-05-08T09:42:46.084Z,1097.00
2023-05-08T09:43:46.079Z,1107.00
2023-05-08T09:44:46.103Z,996.00
2023-05-08T09:45:46.326Z,999.00
2023-05-08T09:46:46.205Z,992.00
2023-05-08T09:47:46.814Z,991.00
2023-05-08T09:48:46.302Z,931.00
2023-05-08T09:49:46.382Z,941.00
2023-05-08T09:50:46.396Z,922.00
2023-05-08T09:51:46.457Z,881.00
2023-05-08T09:52:46.493Z,884.00
2023-05-08T09:53:46.545Z,878.00
2023-05-08T09:54:46.584Z,871.00
2023-05-08T09:55:46.676Z,865.00
2023-05-08T09:56:46.686Z,856.00
2023-05-08T09:57:46.834Z,843.00
2023-05-08T09:58:46.749Z,807.00
2023-05-08T09:59:46.805Z,798.00
2023-05-08T10:00:46.891Z,792.00
2023-05-08T10:01:46.865Z,787.00
2023-05-08T10:02:46.979Z,782.00
2023-05-08T10:03:46.967Z,776.00
2023-05-08T10:04:47.114Z,760.00
2023-05-08T10:05:47.003Z,753.00
2023-05-08T10:06:47.050Z,748.00
2023-05-08T10:07:47.052Z,742.00
2023-05-08T10:08:47.082Z,732.00
2023-05-08T10:09:50.962Z,724.00
2023-05-08T10:10:47.110Z,719.00
2023-05-08T10:11:47.085Z,691.00
2023-05-08T10:12:47.252Z,669.00
2023-05-08T10:13:47.215Z,671.00
2023-05-08T10:14:47.202Z,673.00
2023-05-08T10:15:47.111Z,666.00
2023-05-08T10:16:47.145Z,660.00
2023-05-08T10:17:47.087Z,647.00
2023-05-08T10:18:47.071Z,640.00
2023-05-08T10:19:47.049Z,637.00
2023-05-08T10:20:47.080Z,635.00
2023-05-08T10:21:47.047Z,631.00
2023-05-08T10:22:47.009Z,626.00
2023-05-08T10:23:47.038Z,621.00
2023-05-08T10:24:47.054Z,616.00
2023-05-08T10:25:47.037Z,611.00
2023-05-08T10:27:02.699Z,611.00
2023-05-08T10:27:47.997Z,608.00
2023-05-08T10:28:46.984Z,604.00
2023-05-08T10:29:47.064Z,600.00
2023-05-08T10:30:47.047Z,597.00
2023-05-08T10:31:46.989Z,590.00
2023-05-08T10:32:47.065Z,586.00
2023-05-08T10:33:46.959Z,580.00
2023-05-08T10:34:47.019Z,580.00
2023-05-08T10:35:46.952Z,578.00
2023-05-08T10:36:47.306Z,577.00
2023-05-08T10:37:46.923Z,575.00
2023-05-08T10:38:46.944Z,591.00
2023-05-08T10:39:47.001Z,594.00
2023-05-08T10:40:47.049Z,603.00
2023-05-08T10:41:47.074Z,679.00
2023-05-08T10:42:47.083Z,706.00
2023-05-08T10:43:47.230Z,760.00
2023-05-08T10:44:47.193Z,667.00
2023-05-08T10:45:47.321Z,698.00
2023-05-08T10:46:47.476Z,744.00
2023-05-08T10:47:47.777Z,784.00
2023-05-08T10:48:47.335Z,795.00
2023-05-08T10:49:47.363Z,834.00
2023-05-08T10:50:47.424Z,841.00
2023-05-08T10:51:47.425Z,848.00
2023-05-08T10:52:47.401Z,855.00
2023-05-08T10:53:47.410Z,861.00
2023-05-08T10:54:47.415Z,864.00
2023-05-08T10:55:47.398Z,855.00
2023-05-08T10:56:47.434Z,854.00
2023-05-08T10:57:47.457Z,863.00
2023-05-08T10:58:47.416Z,869.00
2023-05-08T10:59:47.408Z,877.00
2023-05-08T11:00:47.425Z,883.00
2023-05-08T11:01:47.432Z,888.00
2023-05-08T11:02:47.474Z,893.00
2023-05-08T11:03:47.512Z,901.00
2023-05-08T11:04:47.640Z,903.00
2023-05-08T11:05:47.418Z,906.00
2023-05-08T11:06:47.426Z,907.00
2023-05-08T11:07:47.438Z,813.00
2023-05-08T11:08:47.451Z,834.00
2023-05-08T11:09:47.417Z,900.00
2023-05-08T11:10:47.422Z,903.00
2023-05-08T11:11:47.415Z,900.00
2023-05-08T11:12:47.438Z,871.00
2023-05-08T11:13:47.415Z,902.00
2023-05-08T11:14:47.422Z,912.00
2023-05-08T11:15:47.494Z,923.00
2023-05-08T11:16:47.416Z,929.00
2023-05-08T11:17:47.419Z,932.00
2023-05-08T11:18:49.663Z,937.00
2023-05-08T11:19:47.452Z,946.00
2023-05-08T11:20:47.417Z,947.00
2023-05-08T11:21:47.440Z,940.00
2023-05-08T11:22:47.423Z,941.00
2023-05-08T11:23:47.463Z,944.00
2023-05-08T11:24:47.459Z,949.00
2023-05-08T11:25:47.494Z,955.00
2023-05-08T11:26:47.532Z,963.00
2023-05-08T11:27:47.578Z,970.00
2023-05-08T11:28:47.585Z,976.00
2023-05-08T11:29:47.639Z,978.00
2023-05-08T11:30:47.719Z,980.00
2023-05-08T11:31:47.853Z,859.00
2023-05-08T11:32:47.769Z,823.00
2023-05-08T11:33:47.689Z,852.00
2023-05-08T11:34:53.494Z,862.00
2023-05-08T11:35:47.866Z,861.00
2023-05-08T11:36:47.948Z,812.00
2023-05-08T11:37:47.785Z,856.00
2023-05-08T11:38:47.727Z,784.00
2023-05-08T11:39:47.876Z,815.00
2023-05-08T11:40:47.697Z,801.00
2023-05-08T11:41:47.838Z,794.00
2023-05-08T11:42:47.703Z,781.00
2023-05-08T11:43:47.732Z,752.00
2023-05-08T11:44:47.837Z,716.00
2023-05-08T11:45:47.648Z,716.00
2023-05-08T11:46:47.962Z,713.00
2023-05-08T11:47:47.686Z,723.00
2023-05-08T11:48:47.600Z,724.00
2023-05-08T11:49:47.618Z,723.00
2023-05-08T11:50:47.582Z,726.00
2023-05-08T11:51:47.608Z,727.00
2023-05-08T11:52:47.604Z,768.00
2023-05-08T11:53:47.634Z,771.00
2023-05-08T11:54:47.578Z,767.00
2023-05-08T11:55:47.602Z,755.00
2023-05-08T11:56:47.975Z,765.00
2023-05-08T11:57:47.572Z,773.00
2023-05-08T11:58:47.576Z,780.00
2023-05-08T11:59:47.555Z,789.00
2023-05-08T12:00:47.568Z,792.00
2023-05-08T12:01:59.966Z,786.00
2023-05-08T12:02:48.602Z,810.00
2023-05-08T12:03:47.737Z,813.00
2023-05-08T12:04:47.826Z,809.00
2023-05-08T12:05:47.508Z,845.00
2023-05-08T12:06:47.905Z,866.00
2023-05-08T12:07:47.479Z,783.00
2023-05-08T12:08:47.524Z,793.00
2023-05-08T12:09:47.492Z,813.00
2023-05-08T12:10:47.461Z,823.00
2023-05-08T12:11:47.469Z,816.00
2023-05-08T12:12:47.494Z,845.00
2023-05-08T12:13:47.451Z,827.00
2023-05-08T12:14:47.434Z,859.00
2023-05-08T12:15:47.503Z,845.00
2023-05-08T12:16:47.467Z,845.00
2023-05-08T12:17:47.490Z,840.00
2023-05-08T12:18:47.443Z,840.00
2023-05-08T12:19:47.422Z,834.00
2023-05-08T12:20:47.416Z,816.00
2023-05-08T12:21:47.439Z,803.00